Overton, Nevada Weather observations

Data are for observation ending at time listed.
 Day   Time    Ave.   Ave.  Ave.  Vector   Max.   Stn.    Total    Solar   Ave.  
  of    of     Air    Rel.  Wind   Wind    Wind   Baro.  Precip.   Rad.    Soil  
Year   Day     Temp.  Hum.  Speed  Dir.    Gust   Pres.                    Temp. 
2014   (PST)    F      %     mph   deg.    mph     mb.     in.     W/m2     F   
------------------------------------------------------------------------------
 297    5:00   55.8    52    1.2   282      3.3   969.5    0.00       0    63.6
 297    5:10   55.0    55    1.2   330      3.3   969.7    0.00       0    63.5
 297    5:20   54.8    55    1.4   279      2.9   969.7    0.00       0    63.4
 297    5:30   53.5    57    2.4   296      3.8   969.8    0.00       0    63.3
 297    5:40   54.0    56    2.1   282      3.9   969.8    0.00       0    63.2
 297    5:50   56.1    52    1.8   268      3.5   969.8    0.00       1    63.2
 297    6:00   56.0    52    1.7   266      3.3   970.0    0.00       4    63.1
 297    6:10   56.2    51    2.1   274      4.6   970.2    0.00       9    63.1
 297    6:20   56.5    51    1.8   279      4.1   970.3    0.00      14    63.1
 297    6:30   57.1    50    1.7   281      3.1   970.5    0.00      32    63.1
 297    6:40   58.5    48    1.7   271      4.7   970.7    0.00      83    63.1
 297    6:50   59.6    46    1.5   293      3.7   971.0    0.00      92    63.2
 297    7:00   60.4    45    2.7   291      4.7   971.3    0.00     129    63.4
 297    7:10   60.8    45    2.8   295      5.0   971.6    0.00     165    63.9
 297    7:20   61.5    44    3.2   298      5.3   971.9    0.00     193    64.5
 297    7:30   62.5    43    3.6   299      5.6   972.2    0.00     220    65.1
 297    7:40   63.6    42    3.7   312      5.8   972.4    0.00     247    65.8
 297    7:50   64.9    40    3.4   315      6.5   972.6    0.00     274    66.4
 297    8:00   66.0    37    4.6   327      6.4   972.7    0.00     301    67.1
 297    8:10   66.6    36    5.2   330      8.2   972.9    0.00     326    67.7
 297    8:20   67.4    34    6.0   324      9.7   973.0    0.00      98    68.4
 297    8:30   68.5    34    5.9   330      8.8   973.0    0.00     303    69.1
 297    8:40   69.3    33    5.9   334      8.3   973.0    0.00     400    69.7
 297    8:50   70.0    31    6.3   326      8.4   973.1    0.00     423    70.3
 297    9:00   71.0    31    6.1   327      9.3   973.2    0.00     445    70.9
 297    9:10   71.8    30    7.0   330      9.6   973.3    0.00     466    71.3
 297    9:20   72.7    29    5.9   328      7.7   973.4    0.00     485    71.8
 297    9:30   74.0    28    5.8   341      8.0   973.4    0.00     503    72.2
 297    9:40   74.4    26    4.8   323      7.5   973.4    0.00     518    72.4
 297    9:50   75.1    27    4.7   337      8.0   973.4    0.00     533    72.4
 297   10:00   75.5    26    4.0   325      7.2   973.4    0.00     547    72.4
 297   10:10   76.4    26    4.1   334      7.5   973.4    0.00     559    72.4
 297   10:20   76.9    25    3.3   317      6.1   973.4    0.00     570    72.5
 297   10:30   78.0    24    2.8   337      6.4   973.3    0.00     580    72.5
 297   10:40   78.8    24    2.1   329      5.3   973.2    0.00     589    72.5
 297   10:50   79.3    23    2.7   332      5.6   973.0    0.00     596    72.5
 297   11:00   80.6    22    1.5   292      5.9   972.9    0.00     602    72.5
 297   11:10   80.7    22    2.9   308      5.6   972.8    0.00     606    72.6
 297   11:20   82.2    21    1.3   316      5.0   972.7    0.00     607    72.7
 297   11:30   83.1    20    2.7   313      5.3   972.5    0.00     548    72.8
 297   11:40   84.0    20    1.3   306      3.4   972.4    0.00     550    72.9
 297   11:50   84.5    20    2.4    12      5.0   972.2    0.00     610    73.0
 297   12:00   84.3    19    1.6   319      4.5   972.0    0.00     604    73.2
 297   12:10   85.7    19    1.6   342      3.2   971.9    0.00     598    73.4
 297   12:20   85.8    19    1.6    16      3.1   971.7    0.00     323    73.5
 297   12:30   85.9    19    1.7   274      3.6   971.7    0.00     157    73.7
 297   12:40   86.4    18    1.2   310      3.2   971.6    0.00     331    73.8
 297   12:50   86.9    18    1.3    92      3.1   971.5    0.00     471    74.0
 297   13:00   86.8    18    1.4   130      3.1   971.4    0.00     508    74.1
 297   13:10   87.9    17    1.1    96      2.9   971.3    0.00     122    74.3
 297   13:20   89.6    16    0.9   340      4.6   971.2    0.00     235    74.5
 297   13:30   87.8    17    1.8   321      4.6   971.1    0.00     122    74.8
 297   13:40   88.9    17    1.2   116      4.2   971.1    0.00     194    75.0
 297   13:50   88.3    17    2.9    43      5.1   971.1    0.00     346    75.3
 297   14:00   88.4    17    0.8    54      3.4   971.0    0.00     441    75.5
 297   14:10   88.9    17    1.5   125      3.4   971.0    0.00     411    75.8
 297   14:20   88.1    18    0.6   174      3.0   970.9    0.00     396    76.0
 297   14:30   88.6    18    1.8   338      4.0   970.8    0.00     354    76.2
 297   14:40   88.8    18    1.2   112      3.0   970.7    0.00     340    76.5
 297   14:50   88.3    18    1.6   182      3.3   970.6    0.00     315    76.8
 297   15:00   88.7    18    1.4    80      3.3   970.5    0.00     289    77.0
 297   15:10   88.4    18    2.0   168      4.1   970.3    0.00     262    77.1
 297   15:20   88.4    18    1.2    76      3.5   970.2    0.00     231    77.3
 297   15:30   88.2    19    2.3    70      3.4   970.1    0.00     205    77.4
 297   15:40   87.8    19    2.3    53      3.2   970.0    0.00     181    77.5
 297   15:50   87.9    19    1.3    59      2.3   969.8    0.00      78    77.6
 297   16:00   87.9    20    1.2    36      2.5   969.6    0.00      26    77.6
 297   16:10   86.9    24    1.3   346      1.8   969.5    0.00       0    77.6
 297   16:20   85.4    26    1.4     7      2.0   969.2    0.00       0    77.6
 297   16:30   85.0    24    1.0   327      2.0   969.1    0.00       4    77.6
 297   16:40   84.3    26    0.5   320      1.5   968.9    0.00       0    77.5
 297   16:50   81.6    30    0.0     0      0.0   968.8    0.00       0    77.4
 297   17:00   79.4    32    0.1   314      0.6   968.6    0.00       0    77.2
 297   17:10   77.1    34    0.0     0      0.0   968.4    0.00       0    77.0
 297   17:20   75.1    36    0.1   283      0.8   968.2    0.00       0    76.7
 297   17:30   72.7    44    1.5   324      2.0   968.1    0.00       0    76.5
 297   17:40   71.1    47    2.2   350      3.0   968.0    0.00       0    76.2
 297   17:50   70.6    47    2.4   344      3.1   967.9    0.00       0    75.9
 297   18:00   71.3    41    2.2   309      3.5   967.8    0.00       0    75.6
 297   18:10   72.1    39    1.9   303      3.0   967.8    0.00       0    75.4
 297   18:20   70.6    41    0.9   288      2.5   967.8    0.00       0    75.1
 297   18:30   70.2    40    2.0   296      3.4   967.8    0.00       0    74.8
 297   18:40   69.4    42    2.5   309      3.6   967.8    0.00       0    74.6
 297   18:50   67.9    46    1.7   308      3.1   967.7    0.00       0    74.3
 297   19:00   66.8    48    2.7   322      3.9   967.7    0.00       0    74.0
 297   19:10   66.7    47    2.0   321      3.1   967.7    0.00       0    73.8
 297   19:20   66.9    46    2.2   305      3.6   967.8    0.00       0    73.6
 297   19:30   67.8    44    1.2   294      2.6   967.9    0.00       0    73.4
 297   19:40   67.7    43    0.5   295      1.6   968.0    0.00       0    73.1
 297   19:50   65.1    48    0.9   322      1.4   968.0    0.00       0    72.9
 297   20:00   65.4    49    1.3   327      1.8   968.0    0.00       0    72.7
 297   20:10   63.8    52    1.1   327      2.0   968.1    0.00       0    72.5
 297   20:20   64.8    48    1.7   273      3.8   968.2    0.00       0    72.3
 297   20:30   65.8    44    2.7   256      3.9   968.3    0.00       0    72.1
 297   20:40   64.5    45    0.9   277      2.2   968.3    0.00       0    71.9
 297   20:50   62.8    51    1.7   343      2.3   968.4    0.00       0    71.7
 297   21:00   62.9    50    1.4   307      3.7   968.5    0.00       0    71.5
 297   21:10   62.6    51    1.5    24      2.9   968.5    0.00       0    71.3
 297   21:20   62.4    53    0.6   315      1.3   968.6    0.00       0    71.1
 297   21:30   60.9    56    1.4   326      2.9   968.6    0.00       0    70.9
 297   21:40   61.6    52    2.6   315      3.7   968.5    0.00       0    70.7
 297   21:50   61.1    53    3.7   323      4.3   968.5    0.00       0    70.5
 297   22:00   61.2    53    2.2   319      3.5   968.4    0.00       0    70.3
 297   22:10   61.2    53    1.6   302      3.7   968.4    0.00       0    70.2
 297   22:20   60.1    54    2.9   316      4.3   968.4    0.00       0    70.0
 297   22:30   60.3    54    3.1   306      4.5   968.3    0.00       0    69.8
 297   22:40   61.9    51    1.5   283      2.9   968.3    0.00       0    69.6
 297   22:50   62.0    50    1.5   269      2.5   968.4    0.00       0    69.5
 297   23:00   62.1    50    1.7   280      3.2   968.4    0.00       0    69.4
 297   23:10   60.9    52    1.9   266      3.1   968.4    0.00       0    69.3
 297   23:20   62.3    49    1.8   277      3.1   968.3    0.00       0    69.1
 297   23:30   62.7    47    1.0   274      3.3   968.4    0.00       0    69.0
 297   23:40   61.1    50    0.8   300      2.0   968.4    0.00       0    68.9
 297   23:50   59.1    54    2.3   303      3.7   968.4    0.00       0    68.8
 298    0:00   58.9    55    2.5   302      4.0   968.4    0.00       0    68.6
 298    0:10   58.2    57    1.2   323      2.2   968.3    0.00       0    68.5
 298    0:20   58.2    57    1.6   299      2.7   968.3    0.00       0    68.3
 298    0:30   58.1    56    1.2   262      2.6   968.2    0.00       0    68.2
 298    0:40   59.7    52    1.6   274      3.1   968.3    0.00       0    68.1
 298    0:50   59.3    53    2.0   300      3.4   968.5    0.00       0    67.9
 298    1:00   58.7    55    2.2   318      2.9   968.5    0.00       0    67.8
 298    1:10   57.7    58    1.6   322      2.9   968.4    0.00       0    67.6
 298    1:20   58.7    55    1.6   256      2.6   968.4    0.00       0    67.5
 298    1:30   58.7    54    1.6   262      4.2   968.4    0.00       0    67.4
 298    1:40   56.4    59    1.5   312      2.2   968.3    0.00       0    67.3
 298    1:50   56.0    60    1.8   302      3.0   968.2    0.00       0    67.1
 298    2:00   56.6    57    1.3   301      2.6   968.0    0.00       0    67.0
 298    2:10   55.8    61    1.3   301      2.5   967.9    0.00       0    66.9
 298    2:20   56.7    58    1.7   252      3.7   967.9    0.00       0    66.7
 298    2:30   57.6    56    0.6   255      2.5   967.9    0.00       0    66.6
 298    2:40   56.8    58    0.3    40      1.2   967.8    0.00       0    66.5
 298    2:50   56.6    61    0.6    46      1.8   967.9    0.00       0    66.4
 298    3:00   55.0    66    0.0     0      0.0   967.8    0.00       0    66.3
 298    3:10   54.5    67    0.1    64      0.7   967.7    0.00       0    66.2
 298    3:20   55.3    64    1.0   220      2.0   967.7    0.00       0    66.0
 298    3:30   55.6    62    0.0     0      0.0   967.8    0.00       0    65.9
 298    3:40   54.0    65    0.4   302      1.8   967.8    0.00       0    65.8
 298    3:50   53.6    65    1.6   303      2.4   967.8    0.00       0    65.7
 298    4:00   54.6    61    0.7   267      1.7   967.8    0.00       0    65.6
 298    4:10   53.7    63    1.7   314      2.7   967.8    0.00       0    65.4
 298    4:20   52.3    70    2.0   356      2.8   967.9    0.00       0    65.2
 298    4:30   53.1    68    1.6   332      2.6   967.9    0.00       0    65.1
 298    4:40   54.0    65    0.6   272      1.5   967.8    0.00       0    65.0
 298    4:50   53.5    66    0.9     1      1.9   967.9    0.00       0    64.9

Return to Overton, Nevada graphs page.


Western Regional Climate Center,wrcc@dri.edu